sensor_id;sensor_type;location;lat;lon;timestamp;temperature;humidity
39931;DHT22;26635;-35.248;149.138;2023-05-15T00:02:18;11.00;91.50
39931;DHT22;26635;-35.248;149.138;2023-05-15T00:04:49;11.20;91.70
39931;DHT22;26635;-35.248;149.138;2023-05-15T00:07:21;11.30;91.70
39931;DHT22;26635;-35.248;149.138;2023-05-15T00:09:52;11.40;91.10
39931;DHT22;26635;-35.248;149.138;2023-05-15T00:12:24;11.50;91.10
39931;DHT22;26635;-35.248;149.138;2023-05-15T00:14:55;11.70;90.70
39931;DHT22;26635;-35.248;149.138;2023-05-15T00:17:28;11.80;90.10
39931;DHT22;26635;-35.248;149.138;2023-05-15T00:19:58;11.90;90.20
39931;DHT22;26635;-35.248;149.138;2023-05-15T00:22:28;12.00;90.20
39931;DHT22;26635;-35.248;149.138;2023-05-15T00:24:59;12.10;89.70
39931;DHT22;26635;-35.248;149.138;2023-05-15T00:27:29;12.20;89.50
39931;DHT22;26635;-35.248;149.138;2023-05-15T00:29:59;12.30;88.90
39931;DHT22;26635;-35.248;149.138;2023-05-15T00:32:29;12.40;88.90
39931;DHT22;26635;-35.248;149.138;2023-05-15T00:35:03;12.50;89.10
39931;DHT22;26635;-35.248;149.138;2023-05-15T00:37:34;12.60;88.10
39931;DHT22;26635;-35.248;149.138;2023-05-15T00:40:05;12.80;87.90
39931;DHT22;26635;-35.248;149.138;2023-05-15T00:42:36;12.90;87.40
39931;DHT22;26635;-35.248;149.138;2023-05-15T00:45:12;13.10;86.80
39931;DHT22;26635;-35.248;149.138;2023-05-15T00:47:44;13.20;84.90
39931;DHT22;26635;-35.248;149.138;2023-05-15T00:50:15;13.30;84.50
39931;DHT22;26635;-35.248;149.138;2023-05-15T00:52:46;13.40;84.50
39931;DHT22;26635;-35.248;149.138;2023-05-15T00:55:17;13.50;84.80
39931;DHT22;26635;-35.248;149.138;2023-05-15T00:57:48;13.60;84.30
39931;DHT22;26635;-35.248;149.138;2023-05-15T01:00:19;13.70;84.00
39931;DHT22;26635;-35.248;149.138;2023-05-15T01:02:49;13.80;83.90
39931;DHT22;26635;-35.248;149.138;2023-05-15T01:05:20;13.90;83.90
39931;DHT22;26635;-35.248;149.138;2023-05-15T01:10:57;14.00;82.80
39931;DHT22;26635;-35.248;149.138;2023-05-15T01:13:28;14.20;82.10
39931;DHT22;26635;-35.248;149.138;2023-05-15T01:15:59;14.30;81.10
39931;DHT22;26635;-35.248;149.138;2023-05-15T01:18:29;14.30;80.40
39931;DHT22;26635;-35.248;149.138;2023-05-15T01:29:59;14.60;80.70
39931;DHT22;26635;-35.248;149.138;2023-05-15T01:33:05;14.70;81.30
39931;DHT22;26635;-35.248;149.138;2023-05-15T01:36:02;14.80;79.90
39931;DHT22;26635;-35.248;149.138;2023-05-15T01:44:06;15.10;78.60
39931;DHT22;26635;-35.248;149.138;2023-05-15T01:46:44;15.20;78.60
39931;DHT22;26635;-35.248;149.138;2023-05-15T01:49:17;15.10;76.60
39931;DHT22;26635;-35.248;149.138;2023-05-15T01:51:54;15.20;77.30
39931;DHT22;26635;-35.248;149.138;2023-05-15T01:54:26;15.30;78.20
39931;DHT22;26635;-35.248;149.138;2023-05-15T01:56:58;15.50;78.10
39931;DHT22;26635;-35.248;149.138;2023-05-15T01:59:29;15.60;77.60
39931;DHT22;26635;-35.248;149.138;2023-05-15T02:02:03;15.70;76.70
39931;DHT22;26635;-35.248;149.138;2023-05-15T02:04:34;15.90;75.10
39931;DHT22;26635;-35.248;149.138;2023-05-15T02:08:22;15.90;74.40
39931;DHT22;26635;-35.248;149.138;2023-05-15T02:11:00;16.00;73.70
39931;DHT22;26635;-35.248;149.138;2023-05-15T02:13:32;16.10;74.10
39931;DHT22;26635;-35.248;149.138;2023-05-15T02:16:04;16.10;72.40
39931;DHT22;26635;-35.248;149.138;2023-05-15T02:18:35;16.20;72.70
39931;DHT22;26635;-35.248;149.138;2023-05-15T02:21:06;16.20;73.90
39931;DHT22;26635;-35.248;149.138;2023-05-15T02:23:37;16.30;74.00
39931;DHT22;26635;-35.248;149.138;2023-05-15T02:37:31;16.50;71.60
39931;DHT22;26635;-35.248;149.138;2023-05-15T02:40:03;16.50;70.70
39931;DHT22;26635;-35.248;149.138;2023-05-15T02:42:36;16.60;69.00
39931;DHT22;26635;-35.248;149.138;2023-05-15T02:45:08;16.60;69.70
39931;DHT22;26635;-35.248;149.138;2023-05-15T02:47:40;16.70;70.00
39931;DHT22;26635;-35.248;149.138;2023-05-15T02:50:11;16.70;69.90
39931;DHT22;26635;-35.248;149.138;2023-05-15T02:52:42;16.60;68.70
39931;DHT22;26635;-35.248;149.138;2023-05-15T02:55:12;16.70;70.20
39931;DHT22;26635;-35.248;149.138;2023-05-15T02:57:42;16.80;71.50
39931;DHT22;26635;-35.248;149.138;2023-05-15T03:00:13;16.90;69.30
39931;DHT22;26635;-35.248;149.138;2023-05-15T03:02:44;17.00;69.60
39931;DHT22;26635;-35.248;149.138;2023-05-15T03:05:14;16.90;70.10
39931;DHT22;26635;-35.248;149.138;2023-05-15T03:07:45;17.00;68.60
39931;DHT22;26635;-35.248;149.138;2023-05-15T03:10:15;17.00;68.80
39931;DHT22;26635;-35.248;149.138;2023-05-15T03:12:45;17.00;70.80
39931;DHT22;26635;-35.248;149.138;2023-05-15T03:15:16;17.10;70.70
39931;DHT22;26635;-35.248;149.138;2023-05-15T03:17:46;17.20;70.30
39931;DHT22;26635;-35.248;149.138;2023-05-15T03:20:17;17.20;67.60
39931;DHT22;26635;-35.248;149.138;2023-05-15T03:22:47;17.20;66.50
39931;DHT22;26635;-35.248;149.138;2023-05-15T03:25:17;17.20;65.60
39931;DHT22;26635;-35.248;149.138;2023-05-15T03:27:48;17.20;67.00
39931;DHT22;26635;-35.248;149.138;2023-05-15T03:30:18;17.30;67.40
39931;DHT22;26635;-35.248;149.138;2023-05-15T03:32:48;17.40;68.20
39931;DHT22;26635;-35.248;149.138;2023-05-15T03:35:19;17.40;67.90
39931;DHT22;26635;-35.248;149.138;2023-05-15T03:37:50;17.50;65.30
39931;DHT22;26635;-35.248;149.138;2023-05-15T03:40:20;17.50;65.70
39931;DHT22;26635;-35.248;149.138;2023-05-15T03:42:51;17.60;64.20
39931;DHT22;26635;-35.248;149.138;2023-05-15T03:45:21;17.50;64.30
39931;DHT22;26635;-35.248;149.138;2023-05-15T03:47:53;17.50;63.50
39931;DHT22;26635;-35.248;149.138;2023-05-15T03:50:23;17.40;63.90
39931;DHT22;26635;-35.248;149.138;2023-05-15T03:52:54;17.50;65.60
39931;DHT22;26635;-35.248;149.138;2023-05-15T03:55:24;17.50;65.60
39931;DHT22;26635;-35.248;149.138;2023-05-15T03:57:55;17.50;65.80
39931;DHT22;26635;-35.248;149.138;2023-05-15T04:00:26;17.50;62.90
39931;DHT22;26635;-35.248;149.138;2023-05-15T04:02:56;17.40;64.00
39931;DHT22;26635;-35.248;149.138;2023-05-15T04:05:27;17.40;65.30
39931;DHT22;26635;-35.248;149.138;2023-05-15T04:07:58;17.40;64.00
39931;DHT22;26635;-35.248;149.138;2023-05-15T04:10:28;17.40;64.00
39931;DHT22;26635;-35.248;149.138;2023-05-15T04:13:01;17.40;64.20
39931;DHT22;26635;-35.248;149.138;2023-05-15T04:15:31;17.40;65.00
39931;DHT22;26635;-35.248;149.138;2023-05-15T04:18:02;17.50;65.70
39931;DHT22;26635;-35.248;149.138;2023-05-15T04:20:32;17.50;66.50
39931;DHT22;26635;-35.248;149.138;2023-05-15T04:23:02;17.50;65.10
39931;DHT22;26635;-35.248;149.138;2023-05-15T04:25:34;17.50;65.00
39931;DHT22;26635;-35.248;149.138;2023-05-15T04:28:05;17.50;64.50
39931;DHT22;26635;-35.248;149.138;2023-05-15T04:30:35;17.50;65.30
39931;DHT22;26635;-35.248;149.138;2023-05-15T04:33:05;17.50;64.30
39931;DHT22;26635;-35.248;149.138;2023-05-15T04:35:36;17.50;64.70
39931;DHT22;26635;-35.248;149.138;2023-05-15T04:38:06;17.50;64.60
39931;DHT22;26635;-35.248;149.138;2023-05-15T04:40:37;17.50;64.80
39931;DHT22;26635;-35.248;149.138;2023-05-15T04:43:07;17.50;62.50
39931;DHT22;26635;-35.248;149.138;2023-05-15T04:45:38;17.50;62.00
39931;DHT22;26635;-35.248;149.138;2023-05-15T04:48:09;17.40;62.60
39931;DHT22;26635;-35.248;149.138;2023-05-15T04:50:40;17.50;63.20
39931;DHT22;26635;-35.248;149.138;2023-05-15T04:53:12;17.40;63.70
39931;DHT22;26635;-35.248;149.138;2023-05-15T04:55:43;17.30;63.70
39931;DHT22;26635;-35.248;149.138;2023-05-15T04:58:14;17.20;63.40
39931;DHT22;26635;-35.248;149.138;2023-05-15T05:00:45;17.20;63.20
39931;DHT22;26635;-35.248;149.138;2023-05-15T05:03:15;17.20;62.60
39931;DHT22;26635;-35.248;149.138;2023-05-15T05:05:46;17.20;62.40
39931;DHT22;26635;-35.248;149.138;2023-05-15T05:08:17;17.10;61.40
39931;DHT22;26635;-35.248;149.138;2023-05-15T05:10:56;17.10;62.30
39931;DHT22;26635;-35.248;149.138;2023-05-15T05:13:30;17.10;62.50
39931;DHT22;26635;-35.248;149.138;2023-05-15T05:16:01;17.00;63.80
39931;DHT22;26635;-35.248;149.138;2023-05-15T05:18:32;17.10;62.90
39931;DHT22;26635;-35.248;149.138;2023-05-15T05:21:03;17.10;60.70
39931;DHT22;26635;-35.248;149.138;2023-05-15T05:23:34;17.00;60.40
39931;DHT22;26635;-35.248;149.138;2023-05-15T05:26:05;17.00;61.10
39931;DHT22;26635;-35.248;149.138;2023-05-15T05:28:36;17.00;62.50
39931;DHT22;26635;-35.248;149.138;2023-05-15T05:31:07;17.00;61.70
39931;DHT22;26635;-35.248;149.138;2023-05-15T05:33:38;16.90;62.80
39931;DHT22;26635;-35.248;149.138;2023-05-15T05:36:09;16.90;63.60
39931;DHT22;26635;-35.248;149.138;2023-05-15T05:38:41;16.90;63.00
39931;DHT22;26635;-35.248;149.138;2023-05-15T05:41:12;16.90;64.50
39931;DHT22;26635;-35.248;149.138;2023-05-15T05:43:44;16.80;64.20
39931;DHT22;26635;-35.248;149.138;2023-05-15T05:46:14;16.80;63.70
39931;DHT22;26635;-35.248;149.138;2023-05-15T05:48:45;16.70;65.10
39931;DHT22;26635;-35.248;149.138;2023-05-15T05:51:16;16.70;63.70
39931;DHT22;26635;-35.248;149.138;2023-05-15T05:53:47;16.60;63.70
39931;DHT22;26635;-35.248;149.138;2023-05-15T05:56:17;16.50;65.20
39931;DHT22;26635;-35.248;149.138;2023-05-15T05:58:48;16.50;64.40
39931;DHT22;26635;-35.248;149.138;2023-05-15T06:01:19;16.50;63.10
39931;DHT22;26635;-35.248;149.138;2023-05-15T06:03:50;16.40;62.80
39931;DHT22;26635;-35.248;149.138;2023-05-15T06:06:21;16.40;62.60
39931;DHT22;26635;-35.248;149.138;2023-05-15T06:08:53;16.30;62.60
39931;DHT22;26635;-35.248;149.138;2023-05-15T06:11:24;16.20;63.00
39931;DHT22;26635;-35.248;149.138;2023-05-15T06:13:55;16.20;63.40
39931;DHT22;26635;-35.248;149.138;2023-05-15T06:16:26;16.10;63.60
39931;DHT22;26635;-35.248;149.138;2023-05-15T06:18:57;16.10;63.90
39931;DHT22;26635;-35.248;149.138;2023-05-15T06:21:28;16.00;64.90
39931;DHT22;26635;-35.248;149.138;2023-05-15T06:23:59;16.00;65.00
39931;DHT22;26635;-35.248;149.138;2023-05-15T06:26:30;15.90;65.50
39931;DHT22;26635;-35.248;149.138;2023-05-15T06:29:01;15.80;67.00
39931;DHT22;26635;-35.248;149.138;2023-05-15T06:31:32;15.70;67.90
39931;DHT22;26635;-35.248;149.138;2023-05-15T06:34:03;15.70;67.10
39931;DHT22;26635;-35.248;149.138;2023-05-15T06:36:34;15.60;66.70
39931;DHT22;26635;-35.248;149.138;2023-05-15T06:39:04;15.50;67.20
39931;DHT22;26635;-35.248;149.138;2023-05-15T06:41:37;15.40;67.70
39931;DHT22;26635;-35.248;149.138;2023-05-15T06:44:07;15.40;68.50
39931;DHT22;26635;-35.248;149.138;2023-05-15T06:46:38;15.30;69.70
39931;DHT22;26635;-35.248;149.138;2023-05-15T06:49:09;15.20;69.80
39931;DHT22;26635;-35.248;149.138;2023-05-15T06:51:40;15.10;70.30
39931;DHT22;26635;-35.248;149.138;2023-05-15T06:54:10;15.00;71.70
39931;DHT22;26635;-35.248;149.138;2023-05-15T06:56:41;14.90;71.70
39931;DHT22;26635;-35.248;149.138;2023-05-15T06:59:12;14.80;72.70
39931;DHT22;26635;-35.248;149.138;2023-05-15T07:01:43;14.70;72.50
39931;DHT22;26635;-35.248;149.138;2023-05-15T07:04:14;14.60;72.50
39931;DHT22;26635;-35.248;149.138;2023-05-15T07:06:46;14.50;72.80
39931;DHT22;26635;-35.248;149.138;2023-05-15T07:09:17;14.40;73.20
39931;DHT22;26635;-35.248;149.138;2023-05-15T07:11:47;14.30;73.70
39931;DHT22;26635;-35.248;149.138;2023-05-15T07:14:18;14.20;73.40
39931;DHT22;26635;-35.248;149.138;2023-05-15T07:16:50;14.20;73.80
39931;DHT22;26635;-35.248;149.138;2023-05-15T07:19:21;14.10;74.10
39931;DHT22;26635;-35.248;149.138;2023-05-15T07:21:52;14.00;74.70
39931;DHT22;26635;-35.248;149.138;2023-05-15T07:24:23;13.90;75.30
39931;DHT22;26635;-35.248;149.138;2023-05-15T07:26:54;13.70;75.40
39931;DHT22;26635;-35.248;149.138;2023-05-15T07:29:26;13.60;76.10
39931;DHT22;26635;-35.248;149.138;2023-05-15T07:31:57;13.50;76.80
39931;DHT22;26635;-35.248;149.138;2023-05-15T07:34:28;13.40;77.10
39931;DHT22;26635;-35.248;149.138;2023-05-15T07:36:59;13.20;77.50
39931;DHT22;26635;-35.248;149.138;2023-05-15T07:39:31;13.10;78.20
39931;DHT22;26635;-35.248;149.138;2023-05-15T07:42:02;12.90;79.50
39931;DHT22;26635;-35.248;149.138;2023-05-15T07:44:32;12.80;80.10
39931;DHT22;26635;-35.248;149.138;2023-05-15T07:47:06;12.70;80.30
39931;DHT22;26635;-35.248;149.138;2023-05-15T07:49:37;12.60;80.60
39931;DHT22;26635;-35.248;149.138;2023-05-15T07:52:09;12.50;81.20
39931;DHT22;26635;-35.248;149.138;2023-05-15T07:54:40;12.40;81.50
39931;DHT22;26635;-35.248;149.138;2023-05-15T07:57:11;12.30;82.20
39931;DHT22;26635;-35.248;149.138;2023-05-15T07:59:43;12.30;82.30
39931;DHT22;26635;-35.248;149.138;2023-05-15T08:02:13;12.20;82.40
39931;DHT22;26635;-35.248;149.138;2023-05-15T08:04:44;12.20;82.80
39931;DHT22;26635;-35.248;149.138;2023-05-15T08:07:16;12.10;82.80
39931;DHT22;26635;-35.248;149.138;2023-05-15T08:09:46;12.10;82.80
39931;DHT22;26635;-35.248;149.138;2023-05-15T08:12:21;12.00;83.00
39931;DHT22;26635;-35.248;149.138;2023-05-15T08:14:54;12.00;83.40
39931;DHT22;26635;-35.248;149.138;2023-05-15T08:17:25;11.90;83.60
39931;DHT22;26635;-35.248;149.138;2023-05-15T08:19:56;11.80;84.10
39931;DHT22;26635;-35.248;149.138;2023-05-15T08:22:27;11.80;84.50
39931;DHT22;26635;-35.248;149.138;2023-05-15T08:24:59;11.70;85.10
39931;DHT22;26635;-35.248;149.138;2023-05-15T08:27:34;11.70;85.50
39931;DHT22;26635;-35.248;149.138;2023-05-15T08:30:06;11.60;85.60
39931;DHT22;26635;-35.248;149.138;2023-05-15T08:32:37;11.50;85.90
39931;DHT22;26635;-35.248;149.138;2023-05-15T08:35:08;11.40;86.70
39931;DHT22;26635;-35.248;149.138;2023-05-15T08:37:40;11.40;86.80
39931;DHT22;26635;-35.248;149.138;2023-05-15T08:40:12;11.30;86.60
39931;DHT22;26635;-35.248;149.138;2023-05-15T08:42:49;11.20;87.00
39931;DHT22;26635;-35.248;149.138;2023-05-15T08:45:22;11.20;87.00
39931;DHT22;26635;-35.248;149.138;2023-05-15T08:47:54;11.20;87.10
39931;DHT22;26635;-35.248;149.138;2023-05-15T08:50:29;11.10;86.90
39931;DHT22;26635;-35.248;149.138;2023-05-15T08:53:00;11.10;87.00
39931;DHT22;26635;-35.248;149.138;2023-05-15T08:55:38;11.00;87.80
39931;DHT22;26635;-35.248;149.138;2023-05-15T08:58:09;10.90;88.60
39931;DHT22;26635;-35.248;149.138;2023-05-15T09:00:40;10.80;88.30
39931;DHT22;26635;-35.248;149.138;2023-05-15T09:03:15;10.70;88.60
39931;DHT22;26635;-35.248;149.138;2023-05-15T09:05:49;10.70;89.00
39931;DHT22;26635;-35.248;149.138;2023-05-15T09:08:25;10.60;89.40
39931;DHT22;26635;-35.248;149.138;2023-05-15T09:10:58;10.60;89.00
39931;DHT22;26635;-35.248;149.138;2023-05-15T09:13:29;10.50;89.50
39931;DHT22;26635;-35.248;149.138;2023-05-15T09:16:00;10.50;89.20
39931;DHT22;26635;-35.248;149.138;2023-05-15T09:18:32;10.50;89.10
39931;DHT22;26635;-35.248;149.138;2023-05-15T09:21:26;10.40;89.20
39931;DHT22;26635;-35.248;149.138;2023-05-15T09:24:24;10.30;89.70
39931;DHT22;26635;-35.248;149.138;2023-05-15T09:27:04;10.30;90.20
39931;DHT22;26635;-35.248;149.138;2023-05-15T09:29:37;10.20;90.00
39931;DHT22;26635;-35.248;149.138;2023-05-15T09:32:11;10.10;90.20
39931;DHT22;26635;-35.248;149.138;2023-05-15T09:34:44;10.10;90.20
39931;DHT22;26635;-35.248;149.138;2023-05-15T09:37:29;10.00;90.20
39931;DHT22;26635;-35.248;149.138;2023-05-15T09:40:12;10.00;90.30
39931;DHT22;26635;-35.248;149.138;2023-05-15T09:42:50;9.90;90.30
39931;DHT22;26635;-35.248;149.138;2023-05-15T09:45:24;9.90;90.20
39931;DHT22;26635;-35.248;149.138;2023-05-15T09:48:00;9.90;90.40
39931;DHT22;26635;-35.248;149.138;2023-05-15T09:50:36;9.80;90.50
39931;DHT22;26635;-35.248;149.138;2023-05-15T09:53:10;9.80;90.40
39931;DHT22;26635;-35.248;149.138;2023-05-15T09:55:48;9.70;91.00
39931;DHT22;26635;-35.248;149.138;2023-05-15T09:58:20;9.70;90.70
39931;DHT22;26635;-35.248;149.138;2023-05-15T10:00:51;9.60;90.70
39931;DHT22;26635;-35.248;149.138;2023-05-15T10:03:22;9.60;91.10
39931;DHT22;26635;-35.248;149.138;2023-05-15T10:06:02;9.50;91.10
39931;DHT22;26635;-35.248;149.138;2023-05-15T10:08:33;9.40;90.90
39931;DHT22;26635;-35.248;149.138;2023-05-15T10:11:06;9.40;91.00
39931;DHT22;26635;-35.248;149.138;2023-05-15T10:13:37;9.40;91.40
39931;DHT22;26635;-35.248;149.138;2023-05-15T10:16:11;9.30;91.20
39931;DHT22;26635;-35.248;149.138;2023-05-15T10:18:44;9.30;91.20
39931;DHT22;26635;-35.248;149.138;2023-05-15T10:21:16;9.20;91.20
39931;DHT22;26635;-35.248;149.138;2023-05-15T10:23:47;9.10;91.30
39931;DHT22;26635;-35.248;149.138;2023-05-15T10:26:48;9.10;90.90
39931;DHT22;26635;-35.248;149.138;2023-05-15T10:29:21;9.00;90.10
39931;DHT22;26635;-35.248;149.138;2023-05-15T10:31:55;9.00;90.30
39931;DHT22;26635;-35.248;149.138;2023-05-15T10:34:28;8.90;91.30
39931;DHT22;26635;-35.248;149.138;2023-05-15T10:37:00;8.90;91.20
39931;DHT22;26635;-35.248;149.138;2023-05-15T10:39:31;8.90;90.70
39931;DHT22;26635;-35.248;149.138;2023-05-15T10:42:06;8.80;91.20
39931;DHT22;26635;-35.248;149.138;2023-05-15T10:44:41;8.80;91.20
39931;DHT22;26635;-35.248;149.138;2023-05-15T10:47:17;8.70;90.80
39931;DHT22;26635;-35.248;149.138;2023-05-15T10:49:48;8.70;91.40
39931;DHT22;26635;-35.248;149.138;2023-05-15T10:52:19;8.70;90.90
39931;DHT22;26635;-35.248;149.138;2023-05-15T10:54:55;8.60;90.90
39931;DHT22;26635;-35.248;149.138;2023-05-15T10:57:27;8.60;91.40
39931;DHT22;26635;-35.248;149.138;2023-05-15T10:59:58;8.60;90.90
39931;DHT22;26635;-35.248;149.138;2023-05-15T11:02:37;8.50;91.60
39931;DHT22;26635;-35.248;149.138;2023-05-15T11:05:09;8.50;91.70
39931;DHT22;26635;-35.248;149.138;2023-05-15T11:07:41;8.40;91.10
39931;DHT22;26635;-35.248;149.138;2023-05-15T11:10:41;8.40;91.50
39931;DHT22;26635;-35.248;149.138;2023-05-15T11:13:12;8.40;91.60
39931;DHT22;26635;-35.248;149.138;2023-05-15T11:15:44;8.40;91.00
39931;DHT22;26635;-35.248;149.138;2023-05-15T11:18:16;8.30;91.90
39931;DHT22;26635;-35.248;149.138;2023-05-15T11:23:24;8.20;91.30
39931;DHT22;26635;-35.248;149.138;2023-05-15T11:25:58;8.20;91.20
39931;DHT22;26635;-35.248;149.138;2023-05-15T11:28:30;8.20;92.00
39931;DHT22;26635;-35.248;149.138;2023-05-15T11:31:10;8.10;92.00
39931;DHT22;26635;-35.248;149.138;2023-05-15T11:33:43;8.10;90.90
39931;DHT22;26635;-35.248;149.138;2023-05-15T11:36:14;8.10;91.50
39931;DHT22;26635;-35.248;149.138;2023-05-15T11:38:49;8.10;91.70
39931;DHT22;26635;-35.248;149.138;2023-05-15T11:41:33;8.10;92.30
39931;DHT22;26635;-35.248;149.138;2023-05-15T11:44:04;8.10;91.80
39931;DHT22;26635;-35.248;149.138;2023-05-15T11:46:35;8.10;92.50
39931;DHT22;26635;-35.248;149.138;2023-05-15T11:49:06;8.10;91.80
39931;DHT22;26635;-35.248;149.138;2023-05-15T11:51:38;8.00;91.80
39931;DHT22;26635;-35.248;149.138;2023-05-15T11:54:12;8.00;91.80
39931;DHT22;26635;-35.248;149.138;2023-05-15T11:56:44;8.00;92.10
39931;DHT22;26635;-35.248;149.138;2023-05-15T11:59:15;7.90;92.20
39931;DHT22;26635;-35.248;149.138;2023-05-15T12:01:46;7.90;92.20
39931;DHT22;26635;-35.248;149.138;2023-05-15T12:04:18;7.90;92.40
39931;DHT22;26635;-35.248;149.138;2023-05-15T12:06:49;7.90;92.30
39931;DHT22;26635;-35.248;149.138;2023-05-15T12:09:21;7.90;92.20
39931;DHT22;26635;-35.248;149.138;2023-05-15T12:11:56;7.90;91.80
39931;DHT22;26635;-35.248;149.138;2023-05-15T12:14:28;7.80;91.90
39931;DHT22;26635;-35.248;149.138;2023-05-15T12:17:02;7.80;91.90
39931;DHT22;26635;-35.248;149.138;2023-05-15T12:19:34;7.80;92.00
39931;DHT22;26635;-35.248;149.138;2023-05-15T12:22:05;7.80;91.90
39931;DHT22;26635;-35.248;149.138;2023-05-15T12:24:40;7.70;91.80
39931;DHT22;26635;-35.248;149.138;2023-05-15T12:27:12;7.70;91.80
39931;DHT22;26635;-35.248;149.138;2023-05-15T12:29:43;7.70;91.70
39931;DHT22;26635;-35.248;149.138;2023-05-15T12:32:14;7.60;92.10
39931;DHT22;26635;-35.248;149.138;2023-05-15T12:34:45;7.60;91.90
39931;DHT22;26635;-35.248;149.138;2023-05-15T12:37:19;7.60;91.90
39931;DHT22;26635;-35.248;149.138;2023-05-15T12:40:03;7.50;92.00
39931;DHT22;26635;-35.248;149.138;2023-05-15T12:42:42;7.50;91.90
39931;DHT22;26635;-35.248;149.138;2023-05-15T12:45:14;7.40;91.90
39931;DHT22;26635;-35.248;149.138;2023-05-15T12:47:47;7.40;92.00
39931;DHT22;26635;-35.248;149.138;2023-05-15T12:50:22;7.30;92.30
39931;DHT22;26635;-35.248;149.138;2023-05-15T12:52:59;7.30;92.30
39931;DHT22;26635;-35.248;149.138;2023-05-15T12:55:33;7.30;92.30
39931;DHT22;26635;-35.248;149.138;2023-05-15T12:58:06;7.30;92.50
39931;DHT22;26635;-35.248;149.138;2023-05-15T13:00:43;7.30;92.30
39931;DHT22;26635;-35.248;149.138;2023-05-15T13:03:19;7.20;92.50
39931;DHT22;26635;-35.248;149.138;2023-05-15T13:05:51;7.20;92.70
39931;DHT22;26635;-35.248;149.138;2023-05-15T13:08:24;7.20;92.30
39931;DHT22;26635;-35.248;149.138;2023-05-15T13:10:59;7.20;93.10
39931;DHT22;26635;-35.248;149.138;2023-05-15T13:13:47;7.10;92.20
39931;DHT22;26635;-35.248;149.138;2023-05-15T13:16:24;7.10;92.70
39931;DHT22;26635;-35.248;149.138;2023-05-15T13:18:58;7.10;92.20
39931;DHT22;26635;-35.248;149.138;2023-05-15T13:21:29;7.00;92.30
39931;DHT22;26635;-35.248;149.138;2023-05-15T13:23:59;7.00;92.70
39931;DHT22;26635;-35.248;149.138;2023-05-15T13:26:30;6.90;92.40
39931;DHT22;26635;-35.248;149.138;2023-05-15T13:29:00;6.90;92.30
39931;DHT22;26635;-35.248;149.138;2023-05-15T13:31:30;6.90;92.40
39931;DHT22;26635;-35.248;149.138;2023-05-15T13:34:01;6.80;92.50
39931;DHT22;26635;-35.248;149.138;2023-05-15T13:36:31;6.80;92.90
39931;DHT22;26635;-35.248;149.138;2023-05-15T13:39:01;6.80;92.60
39931;DHT22;26635;-35.248;149.138;2023-05-15T13:41:34;6.80;92.70
39931;DHT22;26635;-35.248;149.138;2023-05-15T13:44:05;6.70;92.30
39931;DHT22;26635;-35.248;149.138;2023-05-15T13:46:35;6.70;92.20
39931;DHT22;26635;-35.248;149.138;2023-05-15T13:49:06;6.60;92.70
39931;DHT22;26635;-35.248;149.138;2023-05-15T13:51:36;6.60;92.40
39931;DHT22;26635;-35.248;149.138;2023-05-15T13:54:06;6.60;92.10
39931;DHT22;26635;-35.248;149.138;2023-05-15T13:56:37;6.60;92.40
39931;DHT22;26635;-35.248;149.138;2023-05-15T13:59:07;6.50;92.90
39931;DHT22;26635;-35.248;149.138;2023-05-15T14:01:38;6.50;92.40
39931;DHT22;26635;-35.248;149.138;2023-05-15T14:04:08;6.50;92.30
39931;DHT22;26635;-35.248;149.138;2023-05-15T14:06:38;6.40;92.30
39931;DHT22;26635;-35.248;149.138;2023-05-15T14:09:09;6.40;92.10
39931;DHT22;26635;-35.248;149.138;2023-05-15T14:11:40;6.30;92.00
39931;DHT22;26635;-35.248;149.138;2023-05-15T14:14:10;6.30;91.80
39931;DHT22;26635;-35.248;149.138;2023-05-15T14:16:40;6.30;92.70
39931;DHT22;26635;-35.248;149.138;2023-05-15T14:19:11;6.30;92.00
39931;DHT22;26635;-35.248;149.138;2023-05-15T14:21:41;6.20;92.00
39931;DHT22;26635;-35.248;149.138;2023-05-15T14:24:12;6.20;92.00
39931;DHT22;26635;-35.248;149.138;2023-05-15T14:26:42;6.20;92.50
39931;DHT22;26635;-35.248;149.138;2023-05-15T14:29:13;6.20;92.80
39931;DHT22;26635;-35.248;149.138;2023-05-15T14:31:43;6.10;92.70
39931;DHT22;26635;-35.248;149.138;2023-05-15T14:34:15;6.10;92.70
39931;DHT22;26635;-35.248;149.138;2023-05-15T14:36:45;6.10;92.40
39931;DHT22;26635;-35.248;149.138;2023-05-15T14:39:17;6.00;92.40
39931;DHT22;26635;-35.248;149.138;2023-05-15T14:41:48;6.00;92.70
39931;DHT22;26635;-35.248;149.138;2023-05-15T14:44:18;6.00;92.10
39931;DHT22;26635;-35.248;149.138;2023-05-15T14:47:07;6.00;92.70
39931;DHT22;26635;-35.248;149.138;2023-05-15T14:49:39;6.00;92.80
39931;DHT22;26635;-35.248;149.138;2023-05-15T14:52:10;5.90;92.40
39931;DHT22;26635;-35.248;149.138;2023-05-15T14:54:41;5.90;93.30
39931;DHT22;26635;-35.248;149.138;2023-05-15T14:57:21;5.80;92.50
39931;DHT22;26635;-35.248;149.138;2023-05-15T14:59:51;5.80;92.60
39931;DHT22;26635;-35.248;149.138;2023-05-15T15:02:21;5.80;92.20
39931;DHT22;26635;-35.248;149.138;2023-05-15T15:04:53;5.80;93.00
39931;DHT22;26635;-35.248;149.138;2023-05-15T15:07:28;5.70;92.20
39931;DHT22;26635;-35.248;149.138;2023-05-15T15:10:00;5.70;92.10
39931;DHT22;26635;-35.248;149.138;2023-05-15T15:12:30;5.70;92.30
39931;DHT22;26635;-35.248;149.138;2023-05-15T15:15:01;5.60;92.30
39931;DHT22;26635;-35.248;149.138;2023-05-15T15:17:32;5.60;92.20
39931;DHT22;26635;-35.248;149.138;2023-05-15T15:20:03;5.60;91.90
39931;DHT22;26635;-35.248;149.138;2023-05-15T15:22:34;5.60;92.20
39931;DHT22;26635;-35.248;149.138;2023-05-15T15:25:05;5.50;91.90
39931;DHT22;26635;-35.248;149.138;2023-05-15T15:27:36;5.50;91.90
39931;DHT22;26635;-35.248;149.138;2023-05-15T15:30:08;5.50;91.90
39931;DHT22;26635;-35.248;149.138;2023-05-15T15:32:39;5.50;92.50
39931;DHT22;26635;-35.248;149.138;2023-05-15T15:35:10;5.40;92.60
39931;DHT22;26635;-35.248;149.138;2023-05-15T15:37:41;5.40;93.00
39931;DHT22;26635;-35.248;149.138;2023-05-15T15:40:12;5.30;92.40
39931;DHT22;26635;-35.248;149.138;2023-05-15T15:42:42;5.30;92.50
39931;DHT22;26635;-35.248;149.138;2023-05-15T15:45:13;5.30;92.50
39931;DHT22;26635;-35.248;149.138;2023-05-15T15:47:44;5.30;92.40
39931;DHT22;26635;-35.248;149.138;2023-05-15T15:50:14;5.20;92.30
39931;DHT22;26635;-35.248;149.138;2023-05-15T15:52:45;5.20;92.40
39931;DHT22;26635;-35.248;149.138;2023-05-15T15:55:15;5.20;92.80
39931;DHT22;26635;-35.248;149.138;2023-05-15T15:57:45;5.20;92.40